CW9683 Weather Reports


Display with metric or nautical units.
time (UTC)temp
F
wind
direction
speed
MPH
gust
MPH
rain 1hr
in
rain 24hr
in
rain mn
in
humidity
%
barometer
mb
20191023083804 58 141 0.0 0.0 0.01 0.33 0.19 98 1004.8
20191023083305 58 141 0.0 0.0 0.01 0.33 0.19 97 1004.8
20191023082804 58 141 0.0 0.0 0.01 0.33 0.19 97 1004.9
20191023082305 58 141 0.0 0.0 0.01 0.33 0.19 98 1005.0
20191023081804 58 141 0.0 0.0 0.01 0.33 0.19 98 1005.1
20191023081304 58 141 0.0 1.0 0.02 0.33 0.19 98 1005.1
20191023080805 58 141 0.0 1.0 0.04 0.33 0.19 98 1005.1
20191023080304 58 141 0.0 0.0 0.04 0.33 0.19 98 1005.3
20191023075803 58 141 0.0 0.0 0.04 0.33 0.19 98 1005.5
20191023075306 58 141 0.0 0.0 0.03 0.32 0.18 98 1005.6
20191023074804 58 141 0.0 1.0 0.03 0.32 0.18 98 1005.7
20191023074303 58 141 0.0 1.0 0.04 0.32 0.18 98 1005.7
20191023073804 57 140 0.0 2.0 0.04 0.32 0.18 97 1005.7
20191023073304 57 140 1.0 3.0 0.04 0.32 0.18 97 1005.7
20191023072804 57 139 0.0 1.0 0.04 0.32 0.18 97 1005.8
20191023072305 57 139 0.0 2.0 0.05 0.32 0.18 98 1006.0
20191023071804 57 139 0.0 3.0 0.05 0.32 0.18 98 1006.1
20191023071304 57 142 2.0 5.0 0.04 0.31 0.17 98 1006.3
20191023070804 57 156 0.0 3.0 0.02 0.29 0.15 98 1006.4
20191023070304 57 157 0.0 2.0 0.02 0.29 0.15 98 1006.4
20191023065804 57 157 0.0 5.0 0.02 0.29 0.15 98 1006.5
20191023065304 57 115 0.0 0.0 0.03 0.29 0.15 98 1006.6
20191023064804 57 115 0.0 1.0 0.03 0.29 0.15 98 1006.7
20191023064303 57 115 0.0 3.0 0.02 0.28 0.14 98 1006.8
20191023063803 57 112 1.0 3.0 0.02 0.28 0.14 97 1006.8
20191023063303 57 108 0.0 1.0 0.02 0.28 0.14 97 1006.8
20191023062804 57 109 0.0 2.0 0.02 0.28 0.14 97 1006.9
20191023062304 57 109 0.0 3.0 0.01 0.27 0.13 97 1006.9
20191023061803 57 104 0.0 3.0 0.02 0.27 0.13 97 1007.1
20191023061303 57 105 0.0 2.0 0.02 0.27 0.13 97 1007.0
20191023060804 57 95 0.0 3.0 0.03 0.27 0.13 97 1007.2
20191023060304 56 84 0.0 1.0 0.04 0.27 0.13 97 1007.3
20191023055804 56 84 0.0 2.0 0.04 0.27 0.13 97 1007.4
20191023055304 56 84 0.0 1.0 0.03 0.26 0.12 97 1007.6
20191023054804 56 84 0.0 1.0 0.04 0.26 0.12 97 1007.7
20191023054303 56 84 1.0 3.0 0.05 0.26 0.12 97 1007.8
20191023053804 56 83 0.0 3.0 0.06 0.26 0.12 97 1007.8
20191023053304 56 73 1.0 3.0 0.07 0.26 0.12 97 1007.8
20191023052803 56 73 0.0 2.0 0.09 0.26 0.12 97 1008.0
20191023052303 56 73 0.0 2.0 0.10 0.26 0.12 97 1008.1
20191023051804 56 105 0.0 1.0 0.09 0.25 0.11 97 1008.3
20191023051304 56 105 0.0 0.0 0.09 0.25 0.11 97 1008.4
20191023050804 56 105 0.0 0.0 0.09 0.24 0.10 97 1008.6
20191023050304 56 105 0.0 0.0 0.08 0.23 0.09 97 1008.7
20191023045804 56 105 0.0 1.0 0.09 0.23 0.09 97 1008.7
20191023045304 56 105 0.0 0.0 0.10 0.23 0.09 97 1008.9
20191023044804 56 105 0.0 0.0 0.09 0.22 0.08 97 1009.1
20191023044304 56 105 0.0 0.0 0.08 0.21 0.07 97 1009.2
20191023043805 56 105 0.0 1.0 0.08 0.20 0.06 97 1009.2
20191023043304 56 105 0.0 0.0 0.07 0.19 0.05 97 1009.4
20191023042804 56 105 0.0 0.0 0.06 0.17 0.03 97 1009.5
20191023042304 56 105 0.0 0.0 0.05 0.16 0.02 97 1009.6
20191023041804 56 105 0.0 0.0 0.05 0.16 0.02 97 1009.8
20191023041303 56 105 0.0 0.0 0.06 0.16 0.02 97 1009.6
20191023040812 56 105 0.0 0.0 0.05 0.15 0.01 97 1009.7
20191023040304 56 105 0.0 1.0 0.06 0.15 0.01 97 1009.9
20191023035804 56 105 0.0 0.0 0.05 0.14 0.14 97 1010.0
20191023035304 56 105 0.0 1.0 0.06 0.14 0.14 97 1010.1
20191023034803 55 105 0.0 3.0 0.05 0.13 0.13 97 1010.0
20191023034303 55 106 0.0 1.0 0.06 0.13 0.13 97 1010.3
20191023033804 55 106 0.0 2.0 0.05 0.12 0.12 97 1010.2
20191023033304 55 104 0.0 0.0 0.05 0.12 0.12 97 1010.1
20191023032805 55 105 0.0 1.0 0.05 0.11 0.11 97 1010.4
20191023032304 55 105 0.0 0.0 0.05 0.11 0.11 97 1010.4
20191023031804 55 105 0.0 2.0 0.05 0.11 0.11 97 1010.7
20191023031304 55 105 1.0 3.0 0.05 0.11 0.11 97 1010.6
20191023030804 55 75 1.0 3.0 0.05 0.10 0.10 97 1010.7
20191023030304 55 90 1.0 3.0 0.04 0.09 0.09 97 1010.6
20191023025804 55 122 0.0 3.0 0.04 0.09 0.09 97 1010.8
20191023025304 55 102 0.0 2.0 0.03 0.08 0.08 97 1011.0
20191023024803 55 94 0.0 3.0 0.03 0.08 0.08 97 1011.0
20191023024304 55 102 1.0 6.0 0.03 0.07 0.07 97 1011.1
20191023023803 55 128 0.0 6.0 0.03 0.07 0.07 97 1011.1
20191023023303 55 94 0.0 3.0 0.03 0.07 0.07 97 1011.2
20191023022804 55 111 1.0 8.0 0.02 0.06 0.06 97 1011.3
20191023022304 55 120 1.0 8.0 0.02 0.06 0.06 97 1011.2
20191023021804 55 137 1.0 8.0 0.03 0.06 0.06 96 1011.3
20191023021304 55 119 0.0 7.0 0.03 0.06 0.06 96 1011.4
20191023020803 55 87 3.0 10.0 0.02 0.05 0.05 96 1011.6
20191023020304 55 105 0.0 8.0 0.02 0.05 0.05 96 1011.7
20191023015804 55 28 2.0 10.0 0.03 0.05 0.05 96 1011.8
20191023015304 55 32 1.0 7.0 0.03 0.05 0.05 96 1011.9
20191023014804 55 101 1.0 6.0 0.03 0.05 0.05 96 1011.9
20191023014304 55 82 2.0 7.0 0.02 0.04 0.04 96 1012.0
20191023013803 55 97 0.0 3.0 0.02 0.04 0.04 96 1012.1
20191023013303 55 112 1.0 9.0 0.02 0.04 0.04 96 1012.1
20191023012803 55 118 1.0 8.0 0.02 0.04 0.04 96 1012.2
20191023012303 55 72 1.0 3.0 0.02 0.04 0.04 96 1012.2
20191023011803 55 63 1.0 6.0 0.01 0.03 0.03 96 1012.1
20191023011304 54 99 2.0 8.0 0.01 0.03 0.03 96 1012.2
20191023010804 54 125 2.0 8.0 0.01 0.03 0.03 96 1012.4
20191023010303 54 92 2.0 10.0 0.01 0.03 0.03 96 1012.4
20191023005804 54 37 1.0 6.0 0.00 0.02 0.02 96 1012.5
20191023005304 54 85 3.0 7.0 0.00 0.02 0.02 96 1012.8
20191023004803 54 135 2.0 7.0 0.00 0.02 0.02 96 1012.9
20191023004304 54 77 2.0 9.0 0.00 0.02 0.02 96 1012.9
20191023003803 54 132 0.0 3.0 0.00 0.02 0.02 96 1013.1
20191023003303 54 133 0.0 3.0 0.00 0.02 0.02 96 1013.2
20191023002804 54 58 1.0 5.0 0.01 0.02 0.02 96 1013.1
20191023002304 54 96 1.0 5.0 0.01 0.02 0.02 96 1013.2
20191023001803 54 102 2.0 8.0 0.01 0.02 0.02 96 1013.2
20191023001304 54 73 1.0 7.0 0.01 0.02 0.02 96 1013.2
20191023000804 54 42 2.0 6.0 0.01 0.02 0.02 96 1013.4
20191023000303 54 114 1.0 7.0 0.01 0.02 0.02 96 1013.3
20191022235803 54 64 1.0 5.0 0.01 0.02 0.02 95 1013.3
20191022235304 54 122 1.0 7.0 0.01 0.02 0.02 95 1013.4
20191022234803 54 85 2.0 9.0 0.01 0.02 0.02 95 1013.7
20191022234304 54 46 1.0 9.0 0.02 0.02 0.02 95 1013.7
20191022233804 54 117 0.0 6.0 0.02 0.02 0.02 95 1013.9
20191022233304 54 42 3.0 12.0 0.02 0.02 0.02 95 1013.9
20191022232804 54 46 1.0 5.0 0.01 0.01 0.01 95 1014.1
20191022232304 54 75 2.0 7.0 0.01 0.01 0.01 95 1014.2
20191022231804 54 124 0.0 3.0 0.01 0.01 0.01 95 1014.3
20191022231304 54 136 1.0 3.0 0.01 0.01 0.01 95 1014.4
20191022230803 54 57 1.0 6.0 0.01 0.01 0.01 95 1014.5
20191022230304 54 107 1.0 6.0 0.01 0.01 0.01 94 1014.6
20191022225804 54 65 1.0 5.0 0.01 0.01 0.01 94 1014.7
20191022225304 54 114 1.0 7.0 0.01 0.01 0.01 94 1014.7
20191022224803 54 109 0.0 3.0 0.01 0.01 0.01 94 1014.8
20191022224304 54 94 1.0 5.0 0.00 0.00 0.00 93 1014.7
20191022223804 54 57 0.0 5.0 0.00 0.00 0.00 93 1014.6
20191022223303 54 51 1.0 3.0 0.00 0.00 0.00 93 1014.8
20191022222803 54 133 2.0 7.0 0.00 0.00 0.00 92 1014.6
20191022222303 54 94 1.0 3.0 0.00 0.00 0.00 92 1014.7
20191022221805 54 86 0.0 6.0 0.00 0.00 0.00 92 1014.8
20191022221304 54 37 2.0 6.0 0.00 0.00 0.00 91 1014.4
20191022220804 54 106 1.0 3.0 0.00 0.00 0.00 91 1014.8
20191022220303 54 130 1.0 5.0 0.00 0.00 0.00 91 1014.8
20191022215803 55 21 1.0 6.0 0.00 0.00 0.00 90 1014.6
20191022215303 55 48 3.0 9.0 0.00 0.00 0.00 90 1014.7
20191022214804 55 66 2.0 9.0 0.00 0.00 0.00 89 1014.8
20191022214303 55 66 4.0 9.0 0.00 0.00 0.00 89 1014.6
20191022213804 55 136 0.0 5.0 0.00 0.00 0.00 88 1014.7
20191022213304 55 57 1.0 9.0 0.00 0.00 0.00 88 1014.9
20191022212803 55 56 3.0 9.0 0.00 0.00 0.00 88 1014.7
20191022212304 55 71 1.0 5.0 0.00 0.00 0.00 87 1014.8
20191022211804 55 102 5.0 12.0 0.00 0.00 0.00 87 1014.6
20191022211304 55 127 5.0 10.0 0.00 0.00 0.00 86 1014.6
20191022210803 56 42 2.0 12.0 0.00 0.00 0.00 86 1014.6
20191022210303 56 82 0.0 10.0 0.00 0.00 0.00 86 1014.5
20191022205803 56 57 3.0 8.0 0.00 0.00 0.00 85 1014.5
20191022205304 56 121 2.0 7.0 0.00 0.00 0.00 85 1014.6
20191022204804 56 70 4.0 9.0 0.00 0.00 0.00 85 1014.7
20191022204303 56 75 1.0 6.0 0.00 0.00 0.00 85 1014.6
20191022203804 56 40 3.0 6.0 0.00 0.00 0.00 85 1014.7
20191022203304 56 61 2.0 9.0 0.00 0.00 0.00 86 1014.6
20191022202804 56 78 2.0 10.0 0.00 0.00 0.00 86 1014.8
20191022202304 56 55 2.0 7.0 0.00 0.00 0.00 86 1014.7
20191022201804 56 53 1.0 7.0 0.00 0.00 0.00 86 1014.7
20191022201304 56 142 3.0 8.0 0.00 0.00 0.00 86 1014.8
20191022200803 56 345 3.0 9.0 0.00 0.00 0.00 86 1015.2
20191022200304 56 40 3.0 9.0 0.00 0.00 0.00 86 1015.3
20191022195804 56 37 2.0 7.0 0.00 0.00 0.00 86 1015.5
20191022195304 56 47 2.0 7.0 0.00 0.00 0.00 86 1015.8
20191022194804 56 51 2.0 10.0 0.00 0.00 0.00 86 1015.7
20191022194304 56 88 4.0 9.0 0.00 0.00 0.00 86 1015.5
20191022193804 56 60 3.0 7.0 0.00 0.00 0.00 86 1015.6
20191022193304 56 35 4.0 8.0 0.00 0.00 0.00 86 1015.8
20191022192804 56 36 2.0 9.0 0.00 0.00 0.00 85 1015.9
20191022192304 56 39 2.0 8.0 0.00 0.00 0.00 85 1015.9
20191022191804 56 59 3.0 9.0 0.00 0.00 0.00 84 1015.8
20191022191304 56 38 2.0 8.0 0.00 0.00 0.00 83 1016.1
20191022190803 57 81 1.0 8.0 0.00 0.00 0.00 82 1016.2
20191022190303 57 73 1.0 8.0 0.00 0.00 0.00 81 1016.1
20191022185803 57 62 3.0 12.0 0.00 0.00 0.00 80 1016.1
20191022185303 58 69 4.0 13.0 0.00 0.00 0.00 79 1016.0
20191022184804 58 104 1.0 9.0 0.00 0.00 0.00 78 1016.1
20191022184304 58 96 1.0 6.0 0.00 0.00 0.00 78 1015.9
20191022183803 58 17 2.0 9.0 0.00 0.00 0.00 78 1016.0
20191022183305 58 81 1.0 3.0 0.00 0.00 0.00 79 1016.3
20191022182803 58 61 1.0 6.0 0.00 0.00 0.00 79 1016.4
20191022182304 58 21 0.0 7.0 0.00 0.00 0.00 78 1016.6
20191022181804 58 102 1.0 3.0 0.00 0.00 0.00 74 1016.5
20191022181304 58 120 1.0 3.0 0.00 0.00 0.00 74 1016.6
20191022180804 58 123 0.0 1.0 0.00 0.00 0.00 74 1016.5
20191022180303 58 125 0.0 3.0 0.00 0.00 0.00 74 1016.5
20191022175803 58 122 0.0 3.0 0.00 0.00 0.00 74 1016.6
20191022175303 58 125 0.0 5.0 0.00 0.00 0.00 73 1016.8
20191022174804 58 143 1.0 7.0 0.00 0.00 0.00 73 1016.8
20191022174303 58 143 1.0 7.0 0.00 0.00 0.00 73 1016.9
20191022173803 58 110 1.0 8.0 0.00 0.00 0.00 73 1016.9
20191022173303 58 139 2.0 9.0 0.00 0.00 0.00 73 1016.9
20191022172804 58 141 1.0 9.0 0.00 0.00 0.00 73 1016.9
20191022172304 58 139 2.0 7.0 0.00 0.00 0.00 72 1016.8
20191022171803 59 87 2.0 9.0 0.00 0.00 0.00 71 1017.0
20191022171304 59 47 2.0 9.0 0.00 0.00 0.00 71 1017.0
20191022170804 59 148 2.0 9.0 0.00 0.00 0.00 71 1017.0
20191022170304 59 130 3.0 10.0 0.00 0.00 0.00 71 1017.0
20191022165803 60 80 3.0 10.0 0.00 0.00 0.00 70 1017.0
20191022165304 60 132 1.0 9.0 0.00 0.00 0.00 71 1016.8
20191022164804 60 130 2.0 8.0 0.00 0.00 0.00 71 1017.0
20191022164303 60 92 1.0 5.0 0.00 0.00 0.00 68 1017.0
20191022163804 60 59 2.0 10.0 0.00 0.00 0.00 67 1016.9
20191022163304 60 92 3.0 12.0 0.00 0.00 0.00 68 1016.7
20191022162803 60 132 5.0 10.0 0.00 0.00 0.00 68 1016.8
20191022162304 60 115 3.0 12.0 0.00 0.00 0.00 67 1016.8
20191022161804 60 85 3.0 10.0 0.00 0.00 0.00 67 1016.9
20191022161303 60 138 3.0 12.0 0.00 0.00 0.00 66 1017.1
20191022160804 60 127 5.0 12.0 0.00 0.00 0.00 67 1017.2
20191022160304 60 104 6.0 12.0 0.00 0.00 0.00 67 1017.2
20191022155804 61 116 6.0 12.0 0.00 0.00 0.00 67 1017.2
20191022155304 61 141 8.0 15.0 0.00 0.00 0.00 68 1017.2
20191022154803 60 95 3.0 9.0 0.00 0.00 0.00 68 1017.1
20191022154303 60 84 5.0 10.0 0.00 0.00 0.00 69 1017.2
20191022153804 60 122 6.0 15.0 0.00 0.00 0.00 69 1017.3
20191022153304 60 141 5.0 12.0 0.00 0.00 0.00 73 1017.3
20191022152805 60 169 2.0 9.0 0.00 0.00 0.00 76 1017.2
20191022152304 59 31 2.0 8.0 0.00 0.00 0.00 78 1017.3
20191022151803 59 104 5.0 12.0 0.00 0.00 0.00 81 1017.4
20191022151304 58 66 2.0 8.0 0.00 0.00 0.00 81 1017.5
20191022150804 58 25 3.0 9.0 0.00 0.00 0.00 84 1017.4
20191022150303 57 96 4.0 12.0 0.00 0.00 0.00 87 1017.5
20191022145803 56 42 2.0 8.0 0.00 0.00 0.00 91 1017.5
20191022145304 55 86 1.0 6.0 0.00 0.00 0.00 92 1017.3
20191022144804 55 93 1.0 6.0 0.00 0.00 0.00 92 1017.3
20191022144304 54 24 1.0 6.0 0.00 0.00 0.00 93 1017.6
20191022143803 54 24 1.0 6.0 0.00 0.00 0.00 94 1017.8
20191022143303 54 123 1.0 7.0 0.00 0.00 0.00 95 1017.9
20191022142804 54 110 2.0 3.0 0.00 0.00 0.00 96 1017.9
20191022142304 53 32 0.0 1.0 0.00 0.00 0.00 96 1018.2
20191022141804 53 32 0.0 1.0 0.00 0.00 0.00 96 1018.3
20191022141304 52 32 0.0 1.0 0.00 0.00 0.00 96 1018.4
20191022140803 52 32 0.0 3.0 0.00 0.00 0.00 96 1018.3
20191022140303 51 32 1.0 6.0 0.00 0.00 0.00 96 1018.3
20191022135804 51 44 1.0 3.0 0.00 0.00 0.00 97 1018.3
20191022135304 51 45 1.0 5.0 0.00 0.00 0.00 97 1018.3
20191022134804 51 54 0.0 3.0 0.00 0.00 0.00 97 1018.8
20191022134304 51 54 1.0 3.0 0.00 0.00 0.00 97 1019.2
20191022133804 51 54 1.0 5.0 0.00 0.00 0.00 97 1018.8
20191022133304 51 54 0.0 3.0 0.00 0.00 0.00 97 1018.9
20191022132804 51 54 1.0 3.0 0.00 0.00 0.00 97 1018.9
20191022132304 51 54 0.0 1.0 0.00 0.00 0.00 97 1018.8
20191022131803 51 54 0.0 1.0 0.00 0.00 0.00 97 1018.9
20191022131303 50 54 0.0 3.0 0.00 0.00 0.00 97 1018.9
20191022130804 50 54 0.0 0.0 0.00 0.00 0.00 97 1019.0
20191022130303 50 54 0.0 0.0 0.00 0.00 0.00 97 1019.1
20191022125803 50 54 0.0 1.0 0.00 0.00 0.00 97 1019.1
20191022125304 50 54 0.0 1.0 0.00 0.00 0.00 97 1019.2
20191022124804 50 54 0.0 2.0 0.00 0.00 0.00 97 1018.7
20191022124304 50 54 0.0 1.0 0.00 0.00 0.00 97 1018.7
20191022123804 50 54 0.0 2.0 0.00 0.00 0.00 97 1018.8
20191022123304 50 54 0.0 0.0 0.00 0.00 0.00 97 1018.8
20191022122804 50 54 0.0 0.0 0.00 0.00 0.00 97 1018.8
20191022122304 50 54 0.0 1.0 0.00 0.00 0.00 97 1018.6
20191022121803 50 54 0.0 0.0 0.00 0.00 0.00 97 1018.2
20191022121304 50 54 0.0 1.0 0.00 0.00 0.00 97 1018.4
20191022120804 49 54 0.0 1.0 0.00 0.00 0.00 97 1018.5
20191022120304 49 54 1.0 3.0 0.00 0.00 0.00 97 1018.2
20191022115804 49 54 1.0 3.0 0.00 0.00 0.00 97 1018.2
20191022115306 49 54 0.0 1.0 0.00 0.00 0.00 97 1018.0
20191022114803 49 54 0.0 1.0 0.00 0.00 0.00 97 1018.2
20191022114303 49 54 0.0 0.0 0.00 0.00 0.00 97 1018.1
20191022113804 49 54 0.0 1.0 0.00 0.00 0.00 97 1018.2
20191022113304 49 54 1.0 3.0 0.00 0.00 0.00 97 1018.0
20191022112804 49 54 1.0 3.0 0.00 0.00 0.00 97 1017.9
20191022112305 49 54 0.0 1.0 0.00 0.00 0.00 97 1018.2
20191022111804 49 54 0.0 0.0 0.00 0.00 0.00 97 1018.3
20191022111304 49 54 0.0 1.0 0.00 0.00 0.00 97 1018.2
20191022110804 49 54 0.0 0.0 0.00 0.00 0.00 97 1018.1
20191022110304 49 54 1.0 3.0 0.00 0.00 0.00 97 1017.9
20191022105803 49 54 1.0 3.0 0.00 0.00 0.00 97 1017.8
20191022105306 49 54 0.0 0.0 0.00 0.00 0.00 97 1018.0
20191022104803 49 54 0.0 1.0 0.00 0.00 0.00 97 1017.9
20191022104303 49 54 1.0 3.0 0.00 0.00 0.00 97 1017.7
20191022103803 49 54 0.0 2.0 0.00 0.00 0.00 97 1017.6
20191022103306 49 54 0.0 3.0 0.00 0.00 0.00 97 1017.7
20191022102805 49 54 1.0 3.0 0.00 0.00 0.00 97 1017.7
20191022102305 49 55 0.0 0.0 0.00 0.00 0.00 97 1017.7
20191022101804 49 55 0.0 2.0 0.00 0.00 0.00 97 1017.9
20191022101303 49 55 0.0 3.0 0.00 0.00 0.00 97 1017.8
20191022100803 49 56 0.0 1.0 0.00 0.00 0.00 97 1017.6
20191022100304 49 56 0.0 3.0 0.00 0.00 0.00 97 1017.8
20191022095803 49 58 0.0 0.0 0.00 0.00 0.00 97 1017.7
20191022094804 49 41 0.0 5.0 0.00 0.00 0.00 97 1017.5
20191022094303 49 49 1.0 5.0 0.00 0.00 0.00 97 1017.5
20191022093804 49 22 1.0 7.0 0.00 0.00 0.00 97 1017.5
20191022093304 49 9 1.0 5.0 0.00 0.00 0.00 97 1017.6
20191022092804 49 5 1.0 3.0 0.00 0.00 0.00 97 1018.0
20191022092306 49 355 1.0 6.0 0.00 0.00 0.00 97 1018.0
20191022091804 49 48 1.0 3.0 0.00 0.00 0.00 97 1017.8
20191022091304 49 49 1.0 3.0 0.00 0.00 0.00 97 1017.9
20191022090804 48 49 2.0 3.0 0.00 0.00 0.00 97 1018.0
20191022090304 48 49 1.0 3.0 0.00 0.00 0.00 97 1018.2
20191022085804 48 81 0.0 1.0 0.00 0.00 0.00 97 1018.4
20191022085305 47 81 1.0 3.0 0.00 0.00 0.00 97 1018.3
20191022084804 47 81 0.0 0.0 0.00 0.00 0.00 97 1018.3
20191022084303 47 81 0.0 1.0 0.00 0.00 0.00 97 1018.2